createdAt,value
2023-04-09T00:01:45.886Z,99.90
2023-04-09T00:04:13.544Z,99.90
2023-04-09T00:06:41.254Z,99.90
2023-04-09T00:09:08.824Z,99.90
2023-04-09T00:11:36.498Z,99.90
2023-04-09T00:14:04.108Z,99.90
2023-04-09T00:16:32.135Z,99.90
2023-04-09T00:18:59.686Z,99.90
2023-04-09T00:21:27.230Z,99.90
2023-04-09T00:23:54.819Z,99.90
2023-04-09T00:26:22.380Z,99.90
2023-04-09T00:28:50.199Z,99.90
2023-04-09T00:31:20.127Z,99.90
2023-04-09T00:33:48.697Z,99.90
2023-04-09T00:36:16.748Z,99.90
2023-04-09T00:38:44.480Z,99.90
2023-04-09T00:41:12.598Z,99.90
2023-04-09T00:43:40.406Z,99.90
2023-04-09T00:46:07.999Z,99.90
2023-04-09T00:48:35.948Z,99.90
2023-04-09T00:51:03.665Z,99.90
2023-04-09T00:53:31.669Z,99.90
2023-04-09T00:55:59.331Z,99.90
2023-04-09T00:58:27.217Z,99.90
2023-04-09T01:00:56.192Z,99.90
2023-04-09T01:03:24.222Z,99.90
2023-04-09T01:06:24.242Z,99.90
2023-04-09T01:08:55.257Z,99.90
2023-04-09T01:11:58.011Z,99.90
2023-04-09T01:14:49.784Z,99.90
2023-04-09T01:17:35.055Z,99.90
2023-04-09T01:20:12.003Z,99.90
2023-04-09T01:22:57.801Z,99.90
2023-04-09T01:25:48.374Z,99.90
2023-04-09T01:28:21.473Z,99.90
2023-04-09T01:30:57.512Z,99.90
2023-04-09T01:33:26.768Z,99.90
2023-04-09T01:35:55.420Z,99.90
2023-04-09T01:38:25.861Z,99.90
2023-04-09T01:40:56.604Z,99.90
2023-04-09T01:43:25.799Z,99.90
2023-04-09T01:45:54.532Z,99.90
2023-04-09T01:48:23.690Z,99.90
2023-04-09T01:50:54.699Z,99.90
2023-04-09T01:53:22.517Z,99.90
2023-04-09T01:55:50.296Z,99.90
2023-04-09T01:58:17.835Z,99.90
2023-04-09T02:00:48.003Z,99.90
2023-04-09T02:03:23.657Z,99.90
2023-04-09T02:06:14.899Z,99.90
2023-04-09T02:08:47.853Z,99.90
2023-04-09T02:11:16.618Z,99.90
2023-04-09T02:13:45.737Z,99.90
2023-04-09T02:16:15.810Z,99.90
2023-04-09T02:18:44.037Z,99.90
2023-04-09T02:21:13.892Z,99.90
2023-04-09T02:23:41.536Z,99.90
2023-04-09T02:26:09.102Z,99.90
2023-04-09T02:28:36.677Z,99.90
2023-04-09T02:31:04.534Z,99.90
2023-04-09T02:33:32.157Z,99.90
2023-04-09T02:35:59.761Z,99.90
2023-04-09T02:38:27.392Z,99.90
2023-04-09T02:40:55.013Z,99.90
2023-04-09T02:43:22.976Z,99.90
2023-04-09T02:45:50.737Z,99.90
2023-04-09T02:48:18.335Z,99.90
2023-04-09T02:50:46.302Z,99.90
2023-04-09T02:53:13.899Z,99.90
2023-04-09T02:55:41.592Z,99.90
2023-04-09T02:58:09.237Z,99.90
2023-04-09T03:00:36.893Z,99.90
2023-04-09T03:03:04.747Z,99.90
2023-04-09T03:05:32.520Z,99.90
2023-04-09T03:08:01.814Z,99.90
2023-04-09T03:10:29.515Z,99.90
2023-04-09T03:12:57.683Z,99.90
2023-04-09T03:15:26.078Z,99.90
2023-04-09T03:17:53.690Z,99.90
2023-04-09T03:20:21.879Z,99.90
2023-04-09T03:22:49.710Z,99.90
2023-04-09T03:25:26.110Z,99.90
2023-04-09T03:27:55.619Z,99.90
2023-04-09T03:30:33.302Z,99.90
2023-04-09T03:33:03.717Z,99.90
2023-04-09T03:35:35.348Z,99.90
2023-04-09T03:38:03.896Z,99.90
2023-04-09T03:40:33.621Z,99.90
2023-04-09T03:43:01.229Z,99.90
2023-04-09T03:45:30.113Z,99.90
2023-04-09T03:48:10.538Z,99.90
2023-04-09T03:50:43.192Z,99.90
2023-04-09T03:53:14.420Z,99.90
2023-04-09T03:55:42.878Z,99.90
2023-04-09T03:58:20.769Z,99.90
2023-04-09T04:00:48.953Z,99.90
2023-04-09T04:03:33.335Z,99.90
2023-04-09T04:06:19.660Z,99.90
2023-04-09T04:08:55.988Z,99.90
2023-04-09T04:11:33.458Z,99.90
2023-04-09T04:14:01.137Z,99.90
2023-04-09T04:16:29.426Z,99.90
2023-04-09T04:18:57.647Z,99.90
2023-04-09T04:21:25.873Z,99.90
2023-04-09T04:24:00.168Z,99.90
2023-04-09T04:26:30.105Z,99.90
2023-04-09T04:28:57.940Z,99.90
2023-04-09T04:31:48.319Z,99.90
2023-04-09T04:34:18.975Z,99.90
2023-04-09T04:36:52.053Z,99.90
2023-04-09T04:39:20.702Z,99.90
2023-04-09T04:41:57.029Z,99.90
2023-04-09T04:44:27.629Z,99.90
2023-04-09T04:47:07.205Z,99.90
2023-04-09T04:49:34.848Z,99.90
2023-04-09T04:52:06.094Z,99.90
2023-04-09T04:54:34.722Z,99.90
2023-04-09T04:57:02.849Z,99.90
2023-04-09T04:59:39.983Z,99.90
2023-04-09T05:02:10.512Z,99.90
2023-04-09T05:04:56.420Z,99.90
2023-04-09T05:07:33.698Z,99.90
2023-04-09T05:10:01.516Z,99.90
2023-04-09T05:12:35.681Z,99.90
2023-04-09T05:15:03.489Z,99.90
2023-04-09T05:17:32.137Z,99.90
2023-04-09T05:20:00.201Z,99.90
2023-04-09T05:22:36.394Z,99.90
2023-04-09T05:25:05.000Z,99.90
2023-04-09T05:27:37.445Z,99.90
2023-04-09T05:30:07.644Z,99.90
2023-04-09T05:32:36.096Z,99.90
2023-04-09T05:35:06.111Z,99.90
2023-04-09T05:37:39.244Z,99.90
2023-04-09T05:40:08.149Z,99.90
2023-04-09T05:42:36.280Z,99.90
2023-04-09T05:45:10.628Z,99.90
2023-04-09T05:47:41.251Z,99.90
2023-04-09T05:50:14.780Z,99.90
2023-04-09T05:52:42.540Z,99.90
2023-04-09T05:55:12.311Z,99.90
2023-04-09T05:57:46.758Z,99.90
2023-04-09T06:00:15.251Z,99.90
2023-04-09T06:02:45.683Z,99.90
2023-04-09T06:05:13.938Z,99.90
2023-04-09T06:07:41.866Z,99.90
2023-04-09T06:10:09.810Z,99.90
2023-04-09T06:12:37.487Z,99.90
2023-04-09T06:15:05.942Z,99.90
2023-04-09T06:17:33.966Z,99.90
2023-04-09T06:20:01.559Z,99.90
2023-04-09T06:22:29.343Z,99.90
2023-04-09T06:24:56.964Z,99.90
2023-04-09T06:27:24.606Z,99.90
2023-04-09T06:29:52.225Z,99.90
2023-04-09T06:32:19.952Z,99.90
2023-04-09T06:34:48.469Z,99.90
2023-04-09T06:37:16.332Z,99.90
2023-04-09T06:39:53.932Z,99.90
2023-04-09T06:42:28.115Z,99.90
2023-04-09T06:45:32.743Z,99.90
2023-04-09T06:48:00.975Z,99.90
2023-04-09T06:50:28.625Z,99.90
2023-04-09T06:52:57.565Z,99.90
2023-04-09T06:55:26.992Z,99.90
2023-04-09T06:57:54.788Z,99.90
2023-04-09T07:00:23.188Z,99.90
2023-04-09T07:02:51.426Z,99.90
2023-04-09T07:05:19.732Z,99.90
2023-04-09T07:07:47.342Z,99.90
2023-04-09T07:10:14.975Z,99.90
2023-04-09T07:12:42.541Z,99.90
2023-04-09T07:15:10.360Z,99.90
2023-04-09T07:17:38.053Z,99.90
2023-04-09T07:20:06.716Z,99.90
2023-04-09T07:22:36.561Z,99.90
2023-04-09T07:25:04.467Z,99.90
2023-04-09T07:27:32.211Z,99.90
2023-04-09T07:30:00.512Z,99.90
2023-04-09T07:32:28.696Z,99.90
2023-04-09T07:34:57.520Z,99.90
2023-04-09T07:37:25.485Z,99.90
2023-04-09T07:39:53.550Z,99.90
2023-04-09T07:42:21.953Z,99.90
2023-04-09T07:44:49.825Z,99.90
2023-04-09T07:47:17.430Z,99.90
2023-04-09T07:49:45.392Z,99.90
2023-04-09T07:52:13.338Z,99.90
2023-04-09T07:54:40.986Z,99.90
2023-04-09T07:57:08.676Z,99.90
2023-04-09T07:59:36.607Z,99.90
2023-04-09T08:02:04.536Z,99.90
2023-04-09T08:04:32.415Z,99.90
2023-04-09T08:07:00.152Z,99.90
2023-04-09T08:09:27.898Z,99.90
2023-04-09T08:11:55.999Z,99.90
2023-04-09T08:14:23.655Z,99.90
2023-04-09T08:16:51.693Z,99.90
2023-04-09T08:19:20.538Z,99.90
2023-04-09T08:21:51.208Z,99.90
2023-04-09T08:24:19.000Z,99.90
2023-04-09T08:26:47.154Z,99.90
2023-04-09T08:29:15.566Z,99.90
2023-04-09T08:31:43.291Z,99.90
2023-04-09T08:34:11.036Z,99.90
2023-04-09T08:36:38.790Z,99.90
2023-04-09T08:39:06.698Z,99.90
2023-04-09T08:41:36.517Z,99.90
2023-04-09T08:44:04.347Z,99.90
2023-04-09T08:46:32.042Z,99.90
2023-04-09T08:48:59.704Z,99.90
2023-04-09T08:51:28.967Z,99.90
2023-04-09T08:53:59.506Z,99.90
2023-04-09T08:56:29.042Z,99.90
2023-04-09T08:58:56.822Z,99.90
2023-04-09T09:01:29.563Z,99.90
2023-04-09T09:04:01.468Z,99.90
2023-04-09T09:06:33.158Z,99.80
2023-04-09T09:09:17.230Z,99.90
2023-04-09T09:11:51.067Z,99.90
2023-04-09T09:14:20.159Z,99.90
2023-04-09T09:16:57.748Z,98.00
2023-04-09T09:19:25.768Z,98.00
2023-04-09T09:21:58.181Z,99.90
2023-04-09T09:24:25.989Z,99.30
2023-04-09T09:26:54.732Z,99.60
2023-04-09T09:29:22.361Z,99.00
2023-04-09T09:31:51.796Z,99.90
2023-04-09T09:34:21.528Z,99.10
2023-04-09T09:36:49.801Z,99.30
2023-04-09T09:39:18.111Z,98.40
2023-04-09T09:41:47.416Z,97.70
2023-04-09T09:44:33.277Z,99.90
2023-04-09T09:47:03.603Z,99.90
2023-04-09T09:49:31.283Z,99.10
2023-04-09T09:52:02.666Z,99.80
2023-04-09T09:54:41.819Z,99.90
2023-04-09T09:57:13.777Z,99.20
2023-04-09T10:00:02.409Z,99.10
2023-04-09T10:02:54.282Z,97.50
2023-04-09T10:05:26.951Z,98.40
2023-04-09T10:07:57.520Z,99.90
2023-04-09T10:10:27.376Z,99.20
2023-04-09T10:12:56.459Z,97.60
2023-04-09T10:15:24.196Z,98.20
2023-04-09T10:17:51.967Z,98.20
2023-04-09T10:20:48.986Z,99.50
2023-04-09T10:23:27.449Z,98.70
2023-04-09T10:25:55.166Z,99.90
2023-04-09T10:28:23.721Z,99.70
2023-04-09T10:30:53.753Z,99.90
2023-04-09T10:33:29.243Z,97.70
2023-04-09T10:36:03.300Z,98.20
2023-04-09T10:38:37.783Z,97.40
2023-04-09T10:41:15.605Z,98.40
2023-04-09T10:43:43.551Z,97.30
2023-04-09T10:46:29.683Z,96.80
2023-04-09T10:49:13.933Z,95.60
2023-04-09T10:51:42.122Z,94.70
2023-04-09T10:54:34.755Z,94.60
2023-04-09T10:57:08.303Z,95.90
2023-04-09T10:59:37.227Z,96.50
2023-04-09T11:02:13.574Z,95.60
2023-04-09T11:05:04.816Z,96.10
2023-04-09T11:07:35.210Z,95.00
2023-04-09T11:10:03.129Z,96.10
2023-04-09T11:12:30.720Z,95.90
2023-04-09T11:14:58.365Z,94.40
2023-04-09T11:17:26.223Z,91.90
2023-04-09T11:19:55.452Z,93.10
2023-04-09T11:22:23.102Z,94.70
2023-04-09T11:24:51.275Z,93.20
2023-04-09T11:27:21.844Z,91.50
2023-04-09T11:29:49.553Z,92.70
2023-04-09T11:32:17.185Z,94.00
2023-04-09T11:34:44.884Z,91.90
2023-04-09T11:37:17.172Z,92.30
2023-04-09T11:39:45.897Z,91.80
2023-04-09T11:42:16.797Z,92.20
2023-04-09T11:44:47.646Z,92.10
2023-04-09T11:47:17.490Z,91.00
2023-04-09T11:49:47.306Z,93.90
2023-04-09T11:52:16.884Z,90.60
2023-04-09T11:54:49.739Z,91.20
2023-04-09T11:57:17.554Z,91.00
2023-04-09T11:59:45.731Z,91.30
2023-04-09T12:02:18.482Z,90.40
2023-04-09T12:04:50.836Z,91.20
2023-04-09T12:07:18.875Z,91.40
2023-04-09T12:09:48.432Z,90.40
2023-04-09T12:12:20.572Z,91.90
2023-04-09T12:14:48.246Z,90.90
2023-04-09T12:17:16.020Z,91.40
2023-04-09T12:19:43.596Z,90.30
2023-04-09T12:22:11.170Z,91.30
2023-04-09T12:24:38.750Z,88.10
2023-04-09T12:27:06.415Z,91.40
2023-04-09T12:29:34.386Z,89.70
2023-04-09T12:32:02.236Z,90.10
2023-04-09T12:34:29.993Z,88.30
2023-04-09T12:36:57.756Z,89.60
2023-04-09T12:39:25.625Z,90.10
2023-04-09T12:41:54.763Z,88.90
2023-04-09T12:44:22.684Z,85.20
2023-04-09T12:46:50.398Z,86.50
2023-04-09T12:49:18.587Z,88.80
2023-04-09T12:51:46.840Z,87.70
2023-04-09T12:54:14.608Z,86.30
2023-04-09T12:56:42.942Z,86.90
2023-04-09T12:59:10.727Z,88.00
2023-04-09T13:01:40.754Z,90.70
2023-04-09T13:04:11.297Z,89.10
2023-04-09T13:06:39.463Z,89.60
2023-04-09T13:09:07.052Z,87.90
2023-04-09T13:11:34.709Z,89.80
2023-04-09T13:14:02.937Z,90.00
2023-04-09T13:16:30.654Z,87.80
2023-04-09T13:18:58.581Z,88.50
2023-04-09T13:21:26.581Z,86.30
2023-04-09T13:23:54.389Z,88.80
2023-04-09T13:26:21.961Z,87.20
2023-04-09T13:28:52.260Z,85.80
2023-04-09T13:31:20.161Z,88.10
2023-04-09T13:33:47.969Z,86.20
2023-04-09T13:36:15.759Z,85.70
2023-04-09T13:38:43.391Z,84.50
2023-04-09T13:41:11.000Z,83.50
2023-04-09T13:43:39.172Z,82.70
2023-04-09T13:46:06.932Z,83.70
2023-04-09T13:48:34.598Z,86.00
2023-04-09T13:51:02.243Z,83.20
2023-04-09T13:53:29.978Z,83.30
2023-04-09T13:55:57.638Z,81.80
2023-04-09T13:58:25.479Z,83.00
2023-04-09T14:00:53.186Z,82.80
2023-04-09T14:03:21.722Z,82.90
2023-04-09T14:05:49.790Z,83.10
2023-04-09T14:08:17.522Z,84.60
2023-04-09T14:10:45.478Z,86.50
2023-04-09T14:13:13.171Z,85.80
2023-04-09T14:15:41.867Z,87.00
2023-04-09T14:18:09.656Z,85.80
2023-04-09T14:20:38.516Z,83.70
2023-04-09T14:23:06.245Z,87.70
2023-04-09T14:25:34.032Z,86.80
2023-04-09T14:28:01.988Z,86.80
2023-04-09T14:30:29.787Z,87.20
2023-04-09T14:32:57.562Z,86.90
2023-04-09T14:35:25.673Z,89.00
2023-04-09T14:37:53.354Z,86.10
2023-04-09T14:40:21.110Z,87.50
2023-04-09T14:42:50.360Z,87.80
2023-04-09T14:45:18.038Z,88.30
2023-04-09T14:47:45.752Z,90.10
2023-04-09T14:50:13.649Z,87.80
2023-04-09T14:52:42.116Z,88.70
2023-04-09T14:55:12.717Z,89.30
2023-04-09T14:57:41.118Z,88.50
2023-04-09T15:00:10.558Z,87.80
2023-04-09T15:02:38.812Z,88.60
2023-04-09T15:05:07.382Z,87.80
2023-04-09T15:07:35.149Z,88.10
2023-04-09T15:10:03.306Z,89.50
2023-04-09T15:12:31.849Z,89.30
2023-04-09T15:15:00.058Z,88.00
2023-04-09T15:17:29.123Z,87.40
2023-04-09T15:19:56.819Z,86.00
2023-04-09T15:22:24.483Z,86.30
2023-04-09T15:24:52.175Z,87.70
2023-04-09T15:27:19.969Z,88.60
2023-04-09T15:29:47.584Z,87.70
2023-04-09T15:32:15.257Z,88.20
2023-04-09T15:34:42.910Z,87.40
2023-04-09T15:37:10.630Z,86.20
2023-04-09T15:39:38.354Z,82.70
2023-04-09T15:42:07.923Z,84.60
2023-04-09T15:44:39.179Z,84.70
2023-04-09T15:47:06.926Z,84.80
2023-04-09T15:49:37.028Z,85.10
2023-04-09T15:52:04.862Z,85.10
2023-04-09T15:54:32.462Z,84.40
2023-04-09T15:57:00.111Z,87.80
2023-04-09T15:59:27.742Z,87.50
2023-04-09T16:01:55.499Z,87.50
2023-04-09T16:04:23.191Z,87.40
2023-04-09T16:06:50.838Z,84.80
2023-04-09T16:09:18.446Z,84.50
2023-04-09T16:11:46.786Z,83.80
2023-04-09T16:14:14.502Z,85.40
2023-04-09T16:16:47.373Z,85.10
2023-04-09T16:19:15.893Z,84.90
2023-04-09T16:21:45.610Z,84.80
2023-04-09T16:24:14.331Z,84.70
2023-04-09T16:26:45.989Z,85.40
2023-04-09T16:29:16.255Z,86.70
2023-04-09T16:31:44.117Z,86.20
2023-04-09T16:34:12.032Z,86.60
2023-04-09T16:36:41.396Z,86.80
2023-04-09T16:39:09.161Z,86.80
2023-04-09T16:41:37.600Z,87.90
2023-04-09T16:44:05.181Z,88.40
2023-04-09T16:46:32.831Z,88.60
2023-04-09T16:49:00.629Z,88.70
2023-04-09T16:51:28.494Z,88.40
2023-04-09T16:53:56.204Z,88.10
2023-04-09T16:56:23.916Z,88.10
2023-04-09T16:58:51.874Z,88.90
2023-04-09T17:01:19.801Z,90.00
2023-04-09T17:03:51.263Z,90.60
2023-04-09T17:06:19.383Z,91.00
2023-04-09T17:08:47.006Z,91.10
2023-04-09T17:11:16.110Z,90.80
2023-04-09T17:13:43.990Z,90.70
2023-04-09T17:16:12.031Z,91.50
2023-04-09T17:18:40.144Z,91.90
2023-04-09T17:21:08.092Z,91.80
2023-04-09T17:23:36.383Z,91.50
2023-04-09T17:26:04.139Z,91.80
2023-04-09T17:28:31.969Z,91.50
2023-04-09T17:30:59.671Z,90.20
2023-04-09T17:33:27.557Z,91.00
2023-04-09T17:35:57.770Z,90.60
2023-04-09T17:38:27.160Z,90.70
2023-04-09T17:40:54.832Z,90.20
2023-04-09T17:43:22.922Z,90.30
2023-04-09T17:45:50.533Z,89.60
2023-04-09T17:48:18.258Z,90.60
2023-04-09T17:50:45.912Z,90.50
2023-04-09T17:53:13.772Z,91.10
2023-04-09T17:55:47.570Z,90.90
2023-04-09T17:58:15.701Z,90.60
2023-04-09T18:00:44.412Z,91.60
2023-04-09T18:03:12.533Z,91.30
2023-04-09T18:05:40.606Z,90.80
2023-04-09T18:08:08.345Z,90.50
2023-04-09T18:10:36.236Z,90.30
2023-04-09T18:13:03.997Z,91.20
2023-04-09T18:15:32.549Z,90.70
2023-04-09T18:18:00.744Z,91.80
2023-04-09T18:20:28.863Z,91.50
2023-04-09T18:22:56.755Z,91.00
2023-04-09T18:25:24.623Z,91.60
2023-04-09T18:27:52.457Z,91.40
2023-04-09T18:30:20.477Z,92.40
2023-04-09T18:32:48.497Z,92.40
2023-04-09T18:35:17.475Z,92.20
2023-04-09T18:37:45.561Z,92.40
2023-04-09T18:40:15.738Z,92.60
2023-04-09T18:42:43.666Z,92.30
2023-04-09T18:45:12.479Z,91.70
2023-04-09T18:47:40.908Z,91.60
2023-04-09T18:50:08.991Z,92.40
2023-04-09T18:52:38.978Z,92.50
2023-04-09T18:55:07.063Z,92.40
2023-04-09T18:57:35.613Z,91.90
2023-04-09T19:00:05.430Z,92.10
2023-04-09T19:02:33.727Z,92.00
2023-04-09T19:05:02.283Z,92.50
2023-04-09T19:07:30.174Z,92.30
2023-04-09T19:09:58.615Z,92.40
2023-04-09T19:12:27.660Z,92.30
2023-04-09T19:14:56.126Z,92.40
2023-04-09T19:17:24.084Z,92.30
2023-04-09T19:19:51.944Z,92.30
2023-04-09T19:22:19.786Z,93.10
2023-04-09T19:24:47.632Z,92.90
2023-04-09T19:27:15.368Z,93.50
2023-04-09T19:29:43.021Z,92.90
2023-04-09T19:32:13.827Z,92.70
2023-04-09T19:34:41.463Z,93.00
2023-04-09T19:37:09.412Z,92.70
2023-04-09T19:39:37.238Z,93.30
2023-04-09T19:42:04.908Z,92.70
2023-04-09T19:44:32.485Z,93.40
2023-04-09T19:47:00.200Z,93.30
2023-04-09T19:49:28.705Z,93.20
2023-04-09T19:51:56.956Z,93.40
2023-04-09T19:54:24.575Z,93.20
2023-04-09T19:56:52.173Z,93.10
2023-04-09T19:59:20.155Z,93.50
2023-04-09T20:01:48.755Z,93.30
2023-04-09T20:04:16.876Z,93.20
2023-04-09T20:06:45.350Z,92.70
2023-04-09T20:09:13.671Z,93.00
2023-04-09T20:11:42.319Z,93.10
2023-04-09T20:14:11.955Z,93.70
2023-04-09T20:16:39.852Z,93.00
2023-04-09T20:19:07.771Z,92.60
2023-04-09T20:21:35.393Z,92.70
2023-04-09T20:24:04.340Z,93.10
2023-04-09T20:26:32.152Z,93.90
2023-04-09T20:28:59.791Z,93.70
2023-04-09T20:31:28.011Z,93.60
2023-04-09T20:33:56.278Z,94.00
2023-04-09T20:36:24.039Z,93.90
2023-04-09T20:38:51.871Z,93.90
2023-04-09T20:41:19.748Z,93.90
2023-04-09T20:43:47.376Z,94.20
2023-04-09T20:46:15.318Z,94.80
2023-04-09T20:48:43.618Z,94.20
2023-04-09T20:51:11.912Z,94.10
2023-04-09T20:53:39.787Z,94.90
2023-04-09T20:56:09.301Z,94.60
2023-04-09T20:58:36.981Z,95.30
2023-04-09T21:01:09.856Z,94.90
2023-04-09T21:03:39.241Z,95.00
2023-04-09T21:06:08.396Z,94.70
2023-04-09T21:08:36.783Z,95.60
2023-04-09T21:11:04.827Z,95.40
2023-04-09T21:13:40.430Z,95.40
2023-04-09T21:16:18.493Z,95.50
2023-04-09T21:18:46.348Z,95.20
2023-04-09T21:21:14.315Z,95.60
2023-04-09T21:23:41.986Z,95.90
2023-04-09T21:26:11.411Z,96.30
2023-04-09T21:28:39.188Z,96.10
2023-04-09T21:31:06.829Z,96.20
2023-04-09T21:33:35.120Z,95.90
2023-04-09T21:36:04.432Z,95.70
2023-04-09T21:38:32.224Z,96.30
2023-04-09T21:41:00.324Z,96.30
2023-04-09T21:43:30.657Z,96.50
2023-04-09T21:45:58.459Z,96.50
2023-04-09T21:48:30.657Z,95.80
2023-04-09T21:50:58.837Z,96.10
2023-04-09T21:53:27.773Z,95.80
2023-04-09T21:55:55.578Z,96.20
2023-04-09T21:58:23.384Z,96.10
2023-04-09T22:00:52.226Z,96.40
2023-04-09T22:03:20.099Z,96.50
2023-04-09T22:05:47.845Z,96.80
2023-04-09T22:08:15.624Z,96.70
2023-04-09T22:10:43.345Z,96.70
2023-04-09T22:13:11.120Z,96.90
2023-04-09T22:15:38.748Z,97.00
2023-04-09T22:18:06.401Z,96.80
2023-04-09T22:20:35.947Z,96.70
2023-04-09T22:23:04.155Z,97.10
2023-04-09T22:25:35.131Z,96.90
2023-04-09T22:28:05.838Z,97.20
2023-04-09T22:30:33.858Z,96.60
2023-04-09T22:33:02.394Z,96.60
2023-04-09T22:35:30.800Z,96.20
2023-04-09T22:38:03.102Z,96.10
2023-04-09T22:40:31.275Z,96.70
2023-04-09T22:42:59.771Z,96.70
2023-04-09T22:45:30.576Z,97.00
2023-04-09T22:47:58.403Z,96.50
2023-04-09T22:50:29.416Z,96.70
2023-04-09T22:52:57.875Z,96.50
2023-04-09T22:55:26.142Z,97.20
2023-04-09T22:57:55.172Z,97.50
2023-04-09T23:00:22.908Z,97.10
2023-04-09T23:02:51.192Z,97.20
2023-04-09T23:05:19.511Z,97.00
2023-04-09T23:07:50.839Z,96.80
2023-04-09T23:10:18.889Z,97.50
2023-04-09T23:12:46.535Z,97.10
2023-04-09T23:15:16.792Z,96.90
2023-04-09T23:17:45.284Z,97.00
2023-04-09T23:20:15.194Z,97.60
2023-04-09T23:22:43.959Z,97.80
2023-04-09T23:25:12.323Z,97.10
2023-04-09T23:27:40.488Z,97.50
2023-04-09T23:30:09.871Z,98.20
2023-04-09T23:32:38.510Z,98.50
2023-04-09T23:35:09.909Z,98.40
2023-04-09T23:37:39.286Z,98.20
2023-04-09T23:40:08.362Z,98.30
2023-04-09T23:42:36.035Z,98.20
2023-04-09T23:45:05.897Z,97.90
2023-04-09T23:47:38.779Z,97.90
2023-04-09T23:50:13.427Z,98.30
2023-04-09T23:52:47.770Z,98.40
2023-04-09T23:55:15.964Z,98.90
2023-04-09T23:57:45.342Z,99.60
